sensor_id;sensor_type;location;lat;lon;timestamp;P1;durP1;ratioP1;P2;durP2;ratioP2
23400;SDS011;11873;49.300;8.920;2022-07-01T00:02:22;1.40;;;0.70;;
23400;SDS011;11873;49.300;8.920;2022-07-01T00:07:22;0.67;;;0.67;;
23400;SDS011;11873;49.300;8.920;2022-07-01T00:12:23;0.67;;;0.67;;
23400;SDS011;11873;49.300;8.920;2022-07-01T00:17:23;0.93;;;0.80;;
23400;SDS011;11873;49.300;8.920;2022-07-01T00:22:23;0.67;;;0.67;;
23400;SDS011;11873;49.300;8.920;2022-07-01T00:27:23;0.70;;;0.70;;
23400;SDS011;11873;49.300;8.920;2022-07-01T00:32:23;1.23;;;0.80;;
23400;SDS011;11873;49.300;8.920;2022-07-01T00:37:24;0.70;;;0.70;;
23400;SDS011;11873;49.300;8.920;2022-07-01T00:42:24;0.70;;;0.60;;
23400;SDS011;11873;49.300;8.920;2022-07-01T00:47:24;0.70;;;0.70;;
23400;SDS011;11873;49.300;8.920;2022-07-01T00:52:24;0.73;;;0.70;;
23400;SDS011;11873;49.300;8.920;2022-07-01T00:57:29;0.83;;;0.73;;
23400;SDS011;11873;49.300;8.920;2022-07-01T01:02:29;0.77;;;0.70;;
23400;SDS011;11873;49.300;8.920;2022-07-01T01:07:29;1.13;;;0.80;;
23400;SDS011;11873;49.300;8.920;2022-07-01T01:12:30;0.80;;;0.80;;
23400;SDS011;11873;49.300;8.920;2022-07-01T01:17:31;0.80;;;0.80;;
23400;SDS011;11873;49.300;8.920;2022-07-01T01:22:31;0.73;;;0.70;;
23400;SDS011;11873;49.300;8.920;2022-07-01T01:27:31;1.03;;;0.63;;
23400;SDS011;11873;49.300;8.920;2022-07-01T01:32:31;0.77;;;0.70;;
23400;SDS011;11873;49.300;8.920;2022-07-01T01:37:31;0.63;;;0.63;;
23400;SDS011;11873;49.300;8.920;2022-07-01T01:42:32;0.60;;;0.60;;
23400;SDS011;11873;49.300;8.920;2022-07-01T01:47:32;1.17;;;0.90;;
23400;SDS011;11873;49.300;8.920;2022-07-01T01:52:32;0.80;;;0.80;;
23400;SDS011;11873;49.300;8.920;2022-07-01T01:57:32;2.00;;;0.80;;
23400;SDS011;11873;49.300;8.920;2022-07-01T02:02:32;0.70;;;0.70;;
23400;SDS011;11873;49.300;8.920;2022-07-01T02:07:32;1.13;;;0.90;;
23400;SDS011;11873;49.300;8.920;2022-07-01T02:12:33;1.33;;;0.70;;
23400;SDS011;11873;49.300;8.920;2022-07-01T02:17:34;0.77;;;0.77;;
23400;SDS011;11873;49.300;8.920;2022-07-01T02:22:34;2.10;;;0.97;;
23400;SDS011;11873;49.300;8.920;2022-07-01T02:27:34;0.67;;;0.60;;
23400;SDS011;11873;49.300;8.920;2022-07-01T02:32:34;0.70;;;0.70;;
23400;SDS011;11873;49.300;8.920;2022-07-01T02:37:34;0.77;;;0.70;;
23400;SDS011;11873;49.300;8.920;2022-07-01T02:42:35;1.60;;;0.77;;
23400;SDS011;11873;49.300;8.920;2022-07-01T02:47:35;1.03;;;0.80;;
23400;SDS011;11873;49.300;8.920;2022-07-01T02:52:36;0.70;;;0.70;;
23400;SDS011;11873;49.300;8.920;2022-07-01T02:57:37;0.97;;;0.80;;
23400;SDS011;11873;49.300;8.920;2022-07-01T03:02:37;0.60;;;0.60;;
23400;SDS011;11873;49.300;8.920;2022-07-01T03:07:38;0.60;;;0.60;;
23400;SDS011;11873;49.300;8.920;2022-07-01T03:12:38;0.60;;;0.60;;
23400;SDS011;11873;49.300;8.920;2022-07-01T03:17:39;1.13;;;0.77;;
23400;SDS011;11873;49.300;8.920;2022-07-01T03:22:40;0.97;;;0.97;;
23400;SDS011;11873;49.300;8.920;2022-07-01T03:27:41;0.97;;;0.90;;
23400;SDS011;11873;49.300;8.920;2022-07-01T03:32:41;0.90;;;0.90;;
23400;SDS011;11873;49.300;8.920;2022-07-01T03:37:41;1.10;;;1.00;;
23400;SDS011;11873;49.300;8.920;2022-07-01T03:42:41;0.80;;;0.80;;
23400;SDS011;11873;49.300;8.920;2022-07-01T03:47:48;0.80;;;0.80;;
23400;SDS011;11873;49.300;8.920;2022-07-01T03:52:48;4.00;;;1.00;;
23400;SDS011;11873;49.300;8.920;2022-07-01T03:57:49;0.80;;;0.80;;
23400;SDS011;11873;49.300;8.920;2022-07-01T04:02:49;1.67;;;0.70;;
23400;SDS011;11873;49.300;8.920;2022-07-01T04:07:49;2.13;;;0.90;;
23400;SDS011;11873;49.300;8.920;2022-07-01T04:12:49;1.20;;;1.20;;
23400;SDS011;11873;49.300;8.920;2022-07-01T04:17:49;1.67;;;1.00;;
23400;SDS011;11873;49.300;8.920;2022-07-01T04:22:49;1.20;;;1.10;;
23400;SDS011;11873;49.300;8.920;2022-07-01T04:27:50;1.40;;;1.30;;
23400;SDS011;11873;49.300;8.920;2022-07-01T04:32:50;1.10;;;1.10;;
23400;SDS011;11873;49.300;8.920;2022-07-01T04:37:50;1.30;;;1.20;;
23400;SDS011;11873;49.300;8.920;2022-07-01T04:42:50;0.90;;;0.90;;
23400;SDS011;11873;49.300;8.920;2022-07-01T04:47:50;1.70;;;1.60;;
23400;SDS011;11873;49.300;8.920;2022-07-01T04:52:50;1.00;;;1.00;;
23400;SDS011;11873;49.300;8.920;2022-07-01T04:57:51;2.03;;;1.20;;
23400;SDS011;11873;49.300;8.920;2022-07-01T05:02:51;1.20;;;1.10;;
23400;SDS011;11873;49.300;8.920;2022-07-01T05:07:51;1.63;;;1.00;;
23400;SDS011;11873;49.300;8.920;2022-07-01T05:12:51;1.40;;;1.30;;
23400;SDS011;11873;49.300;8.920;2022-07-01T05:17:52;1.63;;;1.00;;
23400;SDS011;11873;49.300;8.920;2022-07-01T05:22:52;1.23;;;1.23;;
23400;SDS011;11873;49.300;8.920;2022-07-01T05:27:53;1.10;;;1.10;;
23400;SDS011;11873;49.300;8.920;2022-07-01T05:32:53;1.40;;;1.23;;
23400;SDS011;11873;49.300;8.920;2022-07-01T05:37:53;1.70;;;1.60;;
23400;SDS011;11873;49.300;8.920;2022-07-01T05:42:53;1.40;;;1.30;;
23400;SDS011;11873;49.300;8.920;2022-07-01T05:47:54;2.07;;;1.40;;
23400;SDS011;11873;49.300;8.920;2022-07-01T05:52:54;1.47;;;1.40;;
23400;SDS011;11873;49.300;8.920;2022-07-01T05:57:54;1.40;;;1.30;;
23400;SDS011;11873;49.300;8.920;2022-07-01T06:02:54;2.40;;;1.50;;
23400;SDS011;11873;49.300;8.920;2022-07-01T06:07:55;2.03;;;1.30;;
23400;SDS011;11873;49.300;8.920;2022-07-01T06:12:55;1.60;;;1.50;;
23400;SDS011;11873;49.300;8.920;2022-07-01T06:17:55;1.87;;;1.70;;
23400;SDS011;11873;49.300;8.920;2022-07-01T06:22:55;2.53;;;2.13;;
23400;SDS011;11873;49.300;8.920;2022-07-01T06:27:55;3.57;;;1.63;;
23400;SDS011;11873;49.300;8.920;2022-07-01T06:32:56;2.57;;;1.77;;
23400;SDS011;11873;49.300;8.920;2022-07-01T06:37:56;2.77;;;1.93;;
23400;SDS011;11873;49.300;8.920;2022-07-01T06:42:56;4.00;;;1.40;;
23400;SDS011;11873;49.300;8.920;2022-07-01T06:47:56;1.83;;;1.27;;
23400;SDS011;11873;49.300;8.920;2022-07-01T06:52:56;1.83;;;1.47;;
23400;SDS011;11873;49.300;8.920;2022-07-01T06:57:56;2.40;;;1.20;;
23400;SDS011;11873;49.300;8.920;2022-07-01T07:02:57;1.10;;;1.10;;
23400;SDS011;11873;49.300;8.920;2022-07-01T07:07:57;4.63;;;1.40;;
23400;SDS011;11873;49.300;8.920;2022-07-01T07:12:57;1.83;;;1.20;;
23400;SDS011;11873;49.300;8.920;2022-07-01T07:17:57;2.53;;;1.60;;
23400;SDS011;11873;49.300;8.920;2022-07-01T07:22:57;1.10;;;1.10;;
23400;SDS011;11873;49.300;8.920;2022-07-01T07:27:58;1.17;;;1.13;;
23400;SDS011;11873;49.300;8.920;2022-07-01T07:32:58;1.37;;;1.27;;
23400;SDS011;11873;49.300;8.920;2022-07-01T07:37:58;1.00;;;1.00;;
23400;SDS011;11873;49.300;8.920;2022-07-01T07:42:58;1.10;;;1.10;;
23400;SDS011;11873;49.300;8.920;2022-07-01T07:47:58;1.00;;;1.00;;
23400;SDS011;11873;49.300;8.920;2022-07-01T07:52:59;1.50;;;0.90;;
23400;SDS011;11873;49.300;8.920;2022-07-01T07:57:59;0.90;;;0.90;;
23400;SDS011;11873;49.300;8.920;2022-07-01T08:02:59;1.53;;;1.00;;
23400;SDS011;11873;49.300;8.920;2022-07-01T08:07:59;0.90;;;0.90;;
23400;SDS011;11873;49.300;8.920;2022-07-01T08:12:59;1.07;;;1.07;;
23400;SDS011;11873;49.300;8.920;2022-07-01T08:17:59;3.10;;;1.10;;
23400;SDS011;11873;49.300;8.920;2022-07-01T08:25:03;1.20;;;1.20;;
23400;SDS011;11873;49.300;8.920;2022-07-01T08:30:03;1.07;;;1.07;;
23400;SDS011;11873;49.300;8.920;2022-07-01T08:35:03;1.30;;;1.20;;
23400;SDS011;11873;49.300;8.920;2022-07-01T08:40:04;1.60;;;1.10;;
23400;SDS011;11873;49.300;8.920;2022-07-01T08:45:04;1.53;;;1.40;;
23400;SDS011;11873;49.300;8.920;2022-07-01T08:50:05;1.90;;;1.43;;
23400;SDS011;11873;49.300;8.920;2022-07-01T08:55:05;1.40;;;1.30;;
23400;SDS011;11873;49.300;8.920;2022-07-01T09:00:06;2.40;;;1.20;;
23400;SDS011;11873;49.300;8.920;2022-07-01T09:05:07;1.37;;;1.27;;
23400;SDS011;11873;49.300;8.920;2022-07-01T09:20:27;1.30;;;1.30;;
23400;SDS011;11873;49.300;8.920;2022-07-01T09:25:32;1.40;;;1.30;;
23400;SDS011;11873;49.300;8.920;2022-07-01T09:30:33;2.37;;;1.33;;
23400;SDS011;11873;49.300;8.920;2022-07-01T09:35:33;1.80;;;1.70;;
23400;SDS011;11873;49.300;8.920;2022-07-01T09:40:50;1.43;;;1.33;;
23400;SDS011;11873;49.300;8.920;2022-07-01T09:45:51;1.70;;;1.60;;
23400;SDS011;11873;49.300;8.920;2022-07-01T09:50:52;1.43;;;1.40;;
23400;SDS011;11873;49.300;8.920;2022-07-01T09:55:52;1.33;;;1.23;;
23400;SDS011;11873;49.300;8.920;2022-07-01T10:00:53;1.37;;;1.23;;
23400;SDS011;11873;49.300;8.920;2022-07-01T10:05:54;1.20;;;1.20;;
23400;SDS011;11873;49.300;8.920;2022-07-01T10:16:15;1.27;;;1.20;;
23400;SDS011;11873;49.300;8.920;2022-07-01T10:21:29;1.40;;;1.40;;
23400;SDS011;11873;49.300;8.920;2022-07-01T10:26:30;1.40;;;1.30;;
23400;SDS011;11873;49.300;8.920;2022-07-01T10:31:36;1.30;;;1.27;;
23400;SDS011;11873;49.300;8.920;2022-07-01T10:36:36;1.30;;;1.30;;
23400;SDS011;11873;49.300;8.920;2022-07-01T10:41:58;1.23;;;1.23;;
23400;SDS011;11873;49.300;8.920;2022-07-01T10:47:06;1.37;;;1.30;;
23400;SDS011;11873;49.300;8.920;2022-07-01T10:52:11;1.50;;;1.50;;
23400;SDS011;11873;49.300;8.920;2022-07-01T11:02:18;1.77;;;1.10;;
23400;SDS011;11873;49.300;8.920;2022-07-01T11:07:19;1.20;;;1.20;;
23400;SDS011;11873;49.300;8.920;2022-07-01T11:12:21;0.93;;;0.93;;
23400;SDS011;11873;49.300;8.920;2022-07-01T11:17:21;1.37;;;1.30;;
23400;SDS011;11873;49.300;8.920;2022-07-01T11:22:24;1.67;;;1.23;;
23400;SDS011;11873;49.300;8.920;2022-07-01T11:27:24;1.50;;;1.40;;
23400;SDS011;11873;49.300;8.920;2022-07-01T11:32:25;1.40;;;1.30;;
23400;SDS011;11873;49.300;8.920;2022-07-01T11:37:30;1.30;;;1.20;;
23400;SDS011;11873;49.300;8.920;2022-07-01T11:42:30;1.47;;;1.37;;
23400;SDS011;11873;49.300;8.920;2022-07-01T11:47:30;1.13;;;1.13;;
23400;SDS011;11873;49.300;8.920;2022-07-01T11:52:31;1.37;;;1.33;;
23400;SDS011;11873;49.300;8.920;2022-07-01T11:57:31;1.10;;;1.10;;
23400;SDS011;11873;49.300;8.920;2022-07-01T12:02:31;1.60;;;1.20;;
23400;SDS011;11873;49.300;8.920;2022-07-01T12:07:31;1.17;;;1.07;;
23400;SDS011;11873;49.300;8.920;2022-07-01T12:12:32;1.33;;;1.20;;
23400;SDS011;11873;49.300;8.920;2022-07-01T12:17:32;1.43;;;1.20;;
23400;SDS011;11873;49.300;8.920;2022-07-01T12:22:32;1.23;;;1.17;;
23400;SDS011;11873;49.300;8.920;2022-07-01T12:27:32;1.33;;;1.30;;
23400;SDS011;11873;49.300;8.920;2022-07-01T12:32:39;2.23;;;1.30;;
23400;SDS011;11873;49.300;8.920;2022-07-01T12:37:39;1.30;;;1.20;;
23400;SDS011;11873;49.300;8.920;2022-07-01T12:42:43;1.50;;;1.23;;
23400;SDS011;11873;49.300;8.920;2022-07-01T12:47:45;1.47;;;1.27;;
23400;SDS011;11873;49.300;8.920;2022-07-01T12:58:01;1.27;;;1.17;;
23400;SDS011;11873;49.300;8.920;2022-07-01T13:03:02;1.17;;;1.17;;
23400;SDS011;11873;49.300;8.920;2022-07-01T13:08:03;1.03;;;1.00;;
23400;SDS011;11873;49.300;8.920;2022-07-01T13:13:04;1.13;;;1.10;;
23400;SDS011;11873;49.300;8.920;2022-07-01T13:18:05;2.10;;;1.30;;
23400;SDS011;11873;49.300;8.920;2022-07-01T13:23:05;1.47;;;1.37;;
23400;SDS011;11873;49.300;8.920;2022-07-01T13:28:05;1.20;;;1.20;;
23400;SDS011;11873;49.300;8.920;2022-07-01T13:33:05;1.30;;;1.20;;
23400;SDS011;11873;49.300;8.920;2022-07-01T13:38:06;1.37;;;1.27;;
23400;SDS011;11873;49.300;8.920;2022-07-01T13:43:06;1.30;;;1.27;;
23400;SDS011;11873;49.300;8.920;2022-07-01T13:48:06;1.30;;;1.20;;
23400;SDS011;11873;49.300;8.920;2022-07-01T13:53:06;1.40;;;1.30;;
23400;SDS011;11873;49.300;8.920;2022-07-01T13:58:06;1.57;;;1.47;;
23400;SDS011;11873;49.300;8.920;2022-07-01T14:03:07;1.50;;;1.40;;
23400;SDS011;11873;49.300;8.920;2022-07-01T14:08:07;4.10;;;1.43;;
23400;SDS011;11873;49.300;8.920;2022-07-01T14:13:07;3.13;;;1.30;;
23400;SDS011;11873;49.300;8.920;2022-07-01T14:18:07;1.37;;;1.27;;
23400;SDS011;11873;49.300;8.920;2022-07-01T14:23:08;2.40;;;1.33;;
23400;SDS011;11873;49.300;8.920;2022-07-01T14:28:08;1.00;;;1.00;;
23400;SDS011;11873;49.300;8.920;2022-07-01T14:33:08;1.10;;;1.10;;
23400;SDS011;11873;49.300;8.920;2022-07-01T14:38:09;1.00;;;1.00;;
23400;SDS011;11873;49.300;8.920;2022-07-01T14:43:09;1.10;;;1.10;;
23400;SDS011;11873;49.300;8.920;2022-07-01T14:48:09;1.90;;;1.13;;
23400;SDS011;11873;49.300;8.920;2022-07-01T14:53:09;1.30;;;1.20;;
23400;SDS011;11873;49.300;8.920;2022-07-01T14:58:09;1.00;;;1.00;;
23400;SDS011;11873;49.300;8.920;2022-07-01T15:03:10;1.10;;;1.10;;
23400;SDS011;11873;49.300;8.920;2022-07-01T15:08:11;1.30;;;1.20;;
23400;SDS011;11873;49.300;8.920;2022-07-01T15:13:11;1.13;;;1.13;;
23400;SDS011;11873;49.300;8.920;2022-07-01T15:18:11;0.93;;;0.90;;
23400;SDS011;11873;49.300;8.920;2022-07-01T15:23:11;1.00;;;1.00;;
23400;SDS011;11873;49.300;8.920;2022-07-01T15:28:12;1.30;;;1.20;;
23400;SDS011;11873;49.300;8.920;2022-07-01T15:33:12;1.33;;;1.30;;
23400;SDS011;11873;49.300;8.920;2022-07-01T15:38:13;0.83;;;0.80;;
23400;SDS011;11873;49.300;8.920;2022-07-01T15:43:13;1.07;;;0.97;;
23400;SDS011;11873;49.300;8.920;2022-07-01T15:48:13;1.10;;;0.90;;
23400;SDS011;11873;49.300;8.920;2022-07-01T15:53:14;0.90;;;0.90;;
23400;SDS011;11873;49.300;8.920;2022-07-01T15:58:15;0.70;;;0.70;;
23400;SDS011;11873;49.300;8.920;2022-07-01T16:03:16;0.87;;;0.87;;
23400;SDS011;11873;49.300;8.920;2022-07-01T16:08:23;1.90;;;0.87;;
23400;SDS011;11873;49.300;8.920;2022-07-01T16:13:23;1.07;;;1.00;;
23400;SDS011;11873;49.300;8.920;2022-07-01T16:18:25;2.00;;;0.90;;
23400;SDS011;11873;49.300;8.920;2022-07-01T16:23:28;0.73;;;0.70;;
23400;SDS011;11873;49.300;8.920;2022-07-01T16:28:29;0.80;;;0.80;;
23400;SDS011;11873;49.300;8.920;2022-07-01T16:33:30;0.90;;;0.90;;
23400;SDS011;11873;49.300;8.920;2022-07-01T16:38:31;1.03;;;0.93;;
23400;SDS011;11873;49.300;8.920;2022-07-01T16:43:33;2.70;;;1.10;;
23400;SDS011;11873;49.300;8.920;2022-07-01T16:48:35;1.80;;;1.03;;
23400;SDS011;11873;49.300;8.920;2022-07-01T16:53:36;1.60;;;0.90;;
23400;SDS011;11873;49.300;8.920;2022-07-01T16:58:39;1.80;;;0.90;;
23400;SDS011;11873;49.300;8.920;2022-07-01T17:03:40;0.70;;;0.70;;
23400;SDS011;11873;49.300;8.920;2022-07-01T17:08:40;3.00;;;0.70;;
23400;SDS011;11873;49.300;8.920;2022-07-01T17:13:41;1.03;;;0.70;;
23400;SDS011;11873;49.300;8.920;2022-07-01T17:18:43;1.33;;;1.00;;
23400;SDS011;11873;49.300;8.920;2022-07-01T17:33:51;0.70;;;0.70;;
23400;SDS011;11873;49.300;8.920;2022-07-01T17:43:56;1.03;;;0.93;;
23400;SDS011;11873;49.300;8.920;2022-07-01T17:48:57;0.80;;;0.80;;
23400;SDS011;11873;49.300;8.920;2022-07-01T17:53:59;0.90;;;0.90;;
23400;SDS011;11873;49.300;8.920;2022-07-01T17:59:01;0.67;;;0.67;;
23400;SDS011;11873;49.300;8.920;2022-07-01T18:04:02;0.97;;;0.97;;
23400;SDS011;11873;49.300;8.920;2022-07-01T18:09:03;0.90;;;0.90;;
23400;SDS011;11873;49.300;8.920;2022-07-01T18:24:24;0.90;;;0.90;;
23400;SDS011;11873;49.300;8.920;2022-07-01T18:29:27;0.80;;;0.80;;
23400;SDS011;11873;49.300;8.920;2022-07-01T18:34:40;1.00;;;1.00;;
23400;SDS011;11873;49.300;8.920;2022-07-01T18:39:42;0.90;;;0.90;;
23400;SDS011;11873;49.300;8.920;2022-07-01T18:44:42;0.60;;;0.60;;
23400;SDS011;11873;49.300;8.920;2022-07-01T18:49:42;1.00;;;1.00;;
23400;SDS011;11873;49.300;8.920;2022-07-01T18:54:42;2.63;;;0.90;;
23400;SDS011;11873;49.300;8.920;2022-07-01T18:59:42;0.90;;;0.90;;
23400;SDS011;11873;49.300;8.920;2022-07-01T19:04:45;1.00;;;0.90;;
23400;SDS011;11873;49.300;8.920;2022-07-01T19:09:45;1.30;;;0.90;;
23400;SDS011;11873;49.300;8.920;2022-07-01T19:14:45;1.00;;;1.00;;
23400;SDS011;11873;49.300;8.920;2022-07-01T19:19:46;1.50;;;1.40;;
23400;SDS011;11873;49.300;8.920;2022-07-01T19:24:46;1.40;;;1.20;;
23400;SDS011;11873;49.300;8.920;2022-07-01T19:29:46;1.50;;;1.40;;
23400;SDS011;11873;49.300;8.920;2022-07-01T19:34:46;1.43;;;1.17;;
23400;SDS011;11873;49.300;8.920;2022-07-01T19:39:47;1.10;;;1.00;;
23400;SDS011;11873;49.300;8.920;2022-07-01T19:44:47;0.70;;;0.70;;
23400;SDS011;11873;49.300;8.920;2022-07-01T19:49:47;1.17;;;1.07;;
23400;SDS011;11873;49.300;8.920;2022-07-01T19:54:47;1.03;;;1.03;;
23400;SDS011;11873;49.300;8.920;2022-07-01T19:59:47;2.60;;;1.07;;
23400;SDS011;11873;49.300;8.920;2022-07-01T20:04:47;1.50;;;1.10;;
23400;SDS011;11873;49.300;8.920;2022-07-01T20:09:47;1.93;;;1.00;;
23400;SDS011;11873;49.300;8.920;2022-07-01T20:14:48;3.40;;;1.23;;
23400;SDS011;11873;49.300;8.920;2022-07-01T20:19:49;2.63;;;1.13;;
23400;SDS011;11873;49.300;8.920;2022-07-01T20:24:49;2.10;;;1.10;;
23400;SDS011;11873;49.300;8.920;2022-07-01T20:29:49;2.77;;;1.43;;
23400;SDS011;11873;49.300;8.920;2022-07-01T20:34:49;2.67;;;1.90;;
23400;SDS011;11873;49.300;8.920;2022-07-01T20:39:49;1.67;;;1.30;;
23400;SDS011;11873;49.300;8.920;2022-07-01T20:44:49;1.20;;;1.17;;
23400;SDS011;11873;49.300;8.920;2022-07-01T20:49:50;1.47;;;1.37;;
23400;SDS011;11873;49.300;8.920;2022-07-01T20:54:50;1.60;;;1.50;;
23400;SDS011;11873;49.300;8.920;2022-07-01T20:59:50;1.27;;;1.17;;
23400;SDS011;11873;49.300;8.920;2022-07-01T21:04:50;1.30;;;1.30;;
23400;SDS011;11873;49.300;8.920;2022-07-01T21:09:51;1.50;;;1.00;;
23400;SDS011;11873;49.300;8.920;2022-07-01T21:14:51;1.30;;;1.20;;
23400;SDS011;11873;49.300;8.920;2022-07-01T21:19:51;1.13;;;1.13;;
23400;SDS011;11873;49.300;8.920;2022-07-01T21:24:51;1.20;;;1.10;;
23400;SDS011;11873;49.300;8.920;2022-07-01T21:29:51;1.40;;;1.30;;
23400;SDS011;11873;49.300;8.920;2022-07-01T21:34:51;1.30;;;1.20;;
23400;SDS011;11873;49.300;8.920;2022-07-01T21:39:52;1.90;;;1.23;;
23400;SDS011;11873;49.300;8.920;2022-07-01T21:44:52;2.20;;;1.33;;
23400;SDS011;11873;49.300;8.920;2022-07-01T21:49:53;1.83;;;1.60;;
23400;SDS011;11873;49.300;8.920;2022-07-01T21:54:53;1.00;;;1.00;;
23400;SDS011;11873;49.300;8.920;2022-07-01T21:59:55;1.33;;;1.17;;
23400;SDS011;11873;49.300;8.920;2022-07-01T22:04:55;4.17;;;2.30;;
23400;SDS011;11873;49.300;8.920;2022-07-01T22:09:56;7.47;;;2.73;;
23400;SDS011;11873;49.300;8.920;2022-07-01T22:15:02;3.40;;;3.10;;
23400;SDS011;11873;49.300;8.920;2022-07-01T22:20:02;1.43;;;1.30;;
23400;SDS011;11873;49.300;8.920;2022-07-01T22:25:03;1.17;;;1.07;;
23400;SDS011;11873;49.300;8.920;2022-07-01T22:30:04;3.00;;;2.20;;
23400;SDS011;11873;49.300;8.920;2022-07-01T22:35:04;1.27;;;0.97;;
23400;SDS011;11873;49.300;8.920;2022-07-01T22:40:05;1.87;;;1.20;;
23400;SDS011;11873;49.300;8.920;2022-07-01T22:45:05;2.00;;;1.10;;
23400;SDS011;11873;49.300;8.920;2022-07-01T22:55:21;1.20;;;1.20;;
23400;SDS011;11873;49.300;8.920;2022-07-01T23:00:25;1.97;;;1.10;;
23400;SDS011;11873;49.300;8.920;2022-07-01T23:05:26;1.03;;;1.03;;
23400;SDS011;11873;49.300;8.920;2022-07-01T23:10:29;1.13;;;1.00;;
23400;SDS011;11873;49.300;8.920;2022-07-01T23:15:34;1.33;;;1.23;;
23400;SDS011;11873;49.300;8.920;2022-07-01T23:20:34;1.20;;;1.20;;
23400;SDS011;11873;49.300;8.920;2022-07-01T23:25:37;1.03;;;0.97;;
23400;SDS011;11873;49.300;8.920;2022-07-01T23:30:37;1.13;;;1.13;;
23400;SDS011;11873;49.300;8.920;2022-07-01T23:35:40;1.97;;;1.13;;
23400;SDS011;11873;49.300;8.920;2022-07-01T23:40:40;1.27;;;1.07;;
23400;SDS011;11873;49.300;8.920;2022-07-01T23:45:40;1.47;;;1.30;;
23400;SDS011;11873;49.300;8.920;2022-07-01T23:50:41;1.10;;;1.10;;
23400;SDS011;11873;49.300;8.920;2022-07-01T23:55:41;3.20;;;1.13;;
